Time;durP1;ratioP1;P1;durP2;ratioP2;P2;SDS_P1;SDS_P2;PMS_P1;PMS_P2;Temp;Humidity;BMP_temperature;BMP_pressure;BME280_temperature;BME280_humidity;BME280_pressure;Samples;Min_cycle;Max_cycle;Signal;HPM_P1;HPM_P2
2023/08/27 00:01:22;;;;;;;15.73;9.63;;;15.60;99.90;;;;;;5019667;28;20530;-77
2023/08/27 00:03:47;;;;;;;15.88;9.15;;;15.50;99.90;;;;;;5023333;28;20029;-76
2023/08/27 00:06:13;;;;;;;12.75;8.95;;;15.50;99.90;;;;;;5025174;28;20030;-78
2023/08/27 00:08:38;;;;;;;11.80;8.90;;;15.50;99.90;;;;;;5023486;28;20032;-78
2023/08/27 00:11:05;;;;;;;13.48;9.38;;;15.50;99.90;;;;;;5025057;28;20033;-78
2023/08/27 00:13:31;;;;;;;13.07;9.05;;;15.50;99.90;;;;;;5024992;28;20034;-79
2023/08/27 00:15:56;;;;;;;15.20;9.30;;;15.50;99.90;;;;;;5023275;28;20052;-77
2023/08/27 00:18:22;;;;;;;14.65;9.27;;;15.40;99.90;;;;;;5025146;28;20053;-76
2023/08/27 00:20:48;;;;;;;10.98;8.05;;;15.40;99.90;;;;;;5024873;28;20026;-79
2023/08/27 00:23:15;;;;;;;11.85;8.02;;;15.40;99.90;;;;;;5024331;28;20018;-77
2023/08/27 00:25:43;;;;;;;11.93;8.60;;;15.40;99.90;;;;;;5022553;28;20030;-76
2023/08/27 00:28:11;;;;;;;11.30;8.00;;;15.40;99.90;;;;;;5022979;28;20057;-78
2023/08/27 00:30:37;;;;;;;10.57;7.90;;;15.40;99.90;;;;;;5023854;28;20025;-76
2023/08/27 00:33:03;;;;;;;12.38;8.18;;;15.30;99.90;;;;;;5023442;28;20044;-77
2023/08/27 00:35:29;;;;;;;12.73;8.07;;;15.30;99.90;;;;;;5024509;28;20042;-77
2023/08/27 00:37:54;;;;;;;11.57;8.48;;;15.30;99.90;;;;;;5023142;28;20418;-75
2023/08/27 00:40:20;;;;;;;14.73;8.57;;;15.30;99.90;;;;;;5023341;28;20469;-76
2023/08/27 00:42:46;;;;;;;10.88;8.55;;;15.30;99.90;;;;;;5024203;28;20021;-77
2023/08/27 00:45:11;;;;;;;11.73;7.82;;;15.30;99.90;;;;;;5022910;28;20037;-78
2023/08/27 00:47:38;;;;;;;11.00;7.88;;;15.20;99.90;;;;;;5024438;28;20026;-77
2023/08/27 00:50:07;;;;;;;9.68;6.90;;;15.20;99.90;;;;;;5022795;28;20061;-75
2023/08/27 00:52:33;;;;;;;11.35;8.02;;;15.20;99.90;;;;;;5022455;28;20037;-75
2023/08/27 00:55:01;;;;;;;11.85;7.65;;;15.20;99.90;;;;;;5024265;28;20018;-74
2023/08/27 00:57:27;;;;;;;12.20;7.70;;;15.20;99.90;;;;;;5023655;28;20041;-77
2023/08/27 00:59:55;;;;;;;9.13;7.20;;;15.10;99.90;;;;;;5022809;28;20014;-77
2023/08/27 01:02:21;;;;;;;10.05;7.68;;;15.10;99.90;;;;;;5022504;28;20022;-74
2023/08/27 01:04:47;;;;;;;11.70;7.25;;;15.10;99.90;;;;;;5022068;28;20064;-75
2023/08/27 01:07:45;;;;;;;11.88;7.32;;;15.10;99.90;;;;;;5022552;28;20037;-76
2023/08/27 01:10:23;;;;;;;13.80;8.13;;;15.10;99.90;;;;;;5022489;28;20038;-78
2023/08/27 01:13:02;;;;;;;11.02;7.47;;;15.20;99.90;;;;;;5021737;28;20038;-74
2023/08/27 01:15:29;;;;;;;11.80;7.43;;;15.20;99.90;;;;;;5024265;28;20102;-76
2023/08/27 01:17:56;;;;;;;10.70;7.53;;;15.10;99.90;;;;;;5023754;28;20033;-76
2023/08/27 01:20:22;;;;;;;10.63;7.72;;;15.10;99.90;;;;;;5022275;28;20113;-76
2023/08/27 01:22:48;;;;;;;11.60;7.65;;;15.10;99.90;;;;;;5023750;28;20382;-79
2023/08/27 01:25:18;;;;;;;11.18;7.35;;;15.10;99.90;;;;;;5021327;28;20045;-76
2023/08/27 01:28:07;;;;;;;10.48;6.82;;;15.00;99.90;;;;;;5022038;28;20094;-78
2023/08/27 01:30:47;;;;;;;13.00;7.63;;;15.00;99.90;;;;;;5023572;28;20037;-74
2023/08/27 01:33:18;;;;;;;10.63;7.25;;;15.00;99.90;;;;;;5022809;28;20038;-76
2023/08/27 01:35:45;;;;;;;10.38;7.55;;;15.00;99.90;;;;;;5022196;28;20049;-75
2023/08/27 01:38:12;;;;;;;10.07;7.05;;;15.00;99.90;;;;;;5023089;28;20030;-77
2023/08/27 01:40:39;;;;;;;9.45;7.30;;;15.00;99.90;;;;;;5022029;28;20029;-74
2023/08/27 01:43:05;;;;;;;10.88;7.80;;;15.00;99.90;;;;;;5021516;28;20041;-79
2023/08/27 01:45:31;;;;;;;9.70;7.25;;;15.00;99.90;;;;;;5021512;28;20117;-76
2023/08/27 01:47:57;;;;;;;10.60;7.70;;;15.10;99.90;;;;;;5023533;28;20104;-74
2023/08/27 01:50:22;;;;;;;10.55;7.43;;;15.00;99.90;;;;;;5023328;28;20026;-75
2023/08/27 01:52:48;;;;;;;13.82;8.10;;;15.00;99.90;;;;;;5021722;28;20036;-75
2023/08/27 01:55:14;;;;;;;13.23;8.65;;;15.00;99.90;;;;;;5021772;28;21144;-75
2023/08/27 01:57:39;;;;;;;11.18;7.78;;;14.90;99.90;;;;;;5021247;28;20033;-76
2023/08/27 02:00:08;;;;;;;10.23;7.82;;;14.90;99.90;;;;;;5021306;28;20033;-74
2023/08/27 02:02:37;;;;;;;12.18;7.75;;;14.80;99.90;;;;;;5022631;28;20038;-75
2023/08/27 02:05:04;;;;;;;12.43;8.20;;;14.80;99.90;;;;;;5022491;28;20038;-77
2023/08/27 02:07:30;;;;;;;10.48;7.68;;;14.70;99.90;;;;;;5021096;28;20025;-78
2023/08/27 02:09:56;;;;;;;11.98;7.72;;;14.70;99.90;;;;;;5021287;28;20018;-77
2023/08/27 02:12:22;;;;;;;10.38;8.05;;;14.70;99.90;;;;;;5021170;28;20050;-75
2023/08/27 02:14:47;;;;;;;12.30;8.48;;;14.60;99.90;;;;;;5021104;28;20018;-75
2023/08/27 02:17:13;;;;;;;11.57;8.32;;;14.60;99.90;;;;;;5022494;28;20075;-75
2023/08/27 02:19:38;;;;;;;11.85;8.82;;;14.60;99.90;;;;;;5022482;28;20022;-78
2023/08/27 02:22:04;;;;;;;10.75;8.48;;;14.60;99.90;;;;;;5020947;28;20032;-76
2023/08/27 02:24:30;;;;;;;12.07;8.73;;;14.60;99.90;;;;;;5020767;28;20033;-75
2023/08/27 02:26:55;;;;;;;12.88;7.95;;;14.60;99.90;;;;;;5020056;28;20061;-76
2023/08/27 02:29:21;;;;;;;15.05;9.52;;;14.60;99.90;;;;;;5019944;28;20061;-76
2023/08/27 02:31:46;;;;;;;13.02;9.25;;;14.60;99.90;;;;;;5022185;28;20080;-75
2023/08/27 02:34:12;;;;;;;13.80;9.68;;;14.60;99.90;;;;;;5020488;28;20050;-75
2023/08/27 02:36:37;;;;;;;12.25;8.93;;;14.60;99.90;;;;;;5021050;28;20122;-76
2023/08/27 02:39:03;;;;;;;15.77;9.35;;;14.60;99.90;;;;;;5020987;28;20025;-78
2023/08/27 02:41:29;;;;;;;12.23;8.60;;;14.60;99.90;;;;;;5020723;28;20498;-77
2023/08/27 02:43:54;;;;;;;11.50;8.82;;;14.60;99.90;;;;;;5020746;28;20025;-75
2023/08/27 02:46:20;;;;;;;13.50;9.75;;;14.60;99.90;;;;;;5020638;28;20029;-76
2023/08/27 02:48:45;;;;;;;15.05;9.80;;;14.60;99.90;;;;;;5020656;28;20029;-75
2023/08/27 02:51:11;;;;;;;13.43;9.10;;;14.60;99.90;;;;;;5021968;28;20054;-76
2023/08/27 02:53:37;;;;;;;16.67;9.90;;;14.50;99.90;;;;;;5021816;28;20041;-75
2023/08/27 02:56:03;;;;;;;15.40;9.73;;;14.50;99.90;;;;;;5021866;28;20336;-77
2023/08/27 02:58:28;;;;;;;14.93;9.20;;;14.50;99.90;;;;;;5020887;28;20026;-77
2023/08/27 03:00:55;;;;;;;14.35;10.07;;;14.40;99.90;;;;;;5020419;28;20053;-75
2023/08/27 03:03:20;;;;;;;13.48;9.80;;;14.40;99.90;;;;;;5020692;28;20033;-77
2023/08/27 03:05:46;;;;;;;14.55;10.55;;;14.40;99.90;;;;;;5020573;28;20045;-77
2023/08/27 03:08:12;;;;;;;13.43;9.45;;;14.40;99.90;;;;;;5020365;28;20029;-76
2023/08/27 03:10:37;;;;;;;13.60;10.07;;;14.40;99.90;;;;;;5020460;28;20045;-77
2023/08/27 03:13:03;;;;;;;12.85;9.95;;;14.40;99.90;;;;;;5020270;28;20116;-77
2023/08/27 03:15:28;;;;;;;12.60;9.55;;;14.40;99.90;;;;;;5021498;28;20064;-76
2023/08/27 03:17:54;;;;;;;15.27;10.30;;;14.40;99.90;;;;;;5020607;28;20053;-77
2023/08/27 03:20:19;;;;;;;16.10;9.35;;;14.40;99.90;;;;;;5020387;28;20033;-75
2023/08/27 03:22:45;;;;;;;14.43;9.38;;;14.30;99.90;;;;;;5021282;28;20095;-76
2023/08/27 03:25:11;;;;;;;13.65;9.50;;;14.30;99.90;;;;;;5019826;28;20037;-77
2023/08/27 03:27:36;;;;;;;15.30;9.57;;;14.30;99.90;;;;;;5019109;28;20026;-75
2023/08/27 03:30:03;;;;;;;15.68;9.60;;;14.30;99.90;;;;;;5019890;28;20022;-76
2023/08/27 03:32:29;;;;;;;14.45;9.77;;;14.30;99.90;;;;;;5020364;28;20068;-77
2023/08/27 03:34:55;;;;;;;10.68;8.65;;;14.20;99.90;;;;;;5020147;28;20046;-77
2023/08/27 03:37:21;;;;;;;11.38;8.75;;;14.20;99.90;;;;;;5022988;28;20042;-76
2023/08/27 03:39:47;;;;;;;10.35;8.10;;;14.20;99.90;;;;;;5024243;28;20057;-77
2023/08/27 03:42:12;;;;;;;12.75;8.95;;;14.20;99.90;;;;;;5023937;28;20037;-74
2023/08/27 03:44:38;;;;;;;11.65;8.73;;;14.20;99.90;;;;;;5025489;28;20384;-76
2023/08/27 03:47:04;;;;;;;14.63;9.57;;;14.20;99.90;;;;;;5025639;28;20029;-75
2023/08/27 03:49:30;;;;;;;13.13;9.43;;;14.10;99.90;;;;;;5023404;28;20033;-76
2023/08/27 03:51:56;;;;;;;12.77;9.70;;;14.10;99.90;;;;;;5025541;28;20040;-77
2023/08/27 03:54:22;;;;;;;15.85;9.50;;;14.10;99.90;;;;;;5023736;28;20073;-76
2023/08/27 03:56:48;;;;;;;14.25;8.75;;;14.10;99.90;;;;;;5023615;28;20038;-74
2023/08/27 03:59:13;;;;;;;13.32;9.15;;;14.10;99.90;;;;;;5024063;28;20018;-75
2023/08/27 04:01:39;;;;;;;15.75;9.55;;;14.00;99.90;;;;;;5025205;28;20100;-75
2023/08/27 04:04:05;;;;;;;12.82;8.73;;;14.00;99.90;;;;;;5023343;28;20044;-77
2023/08/27 04:06:31;;;;;;;11.18;8.00;;;14.00;99.90;;;;;;5025292;28;20036;-78
2023/08/27 04:08:56;;;;;;;11.70;9.30;;;14.00;99.90;;;;;;5025196;28;20026;-76
2023/08/27 04:11:23;;;;;;;10.98;8.77;;;14.00;99.90;;;;;;5023511;28;20097;-75
2023/08/27 04:13:49;;;;;;;12.05;8.73;;;13.90;99.90;;;;;;5025024;28;20026;-76
2023/08/27 04:16:15;;;;;;;13.50;9.15;;;13.90;99.90;;;;;;5023501;28;20510;-73
2023/08/27 04:18:41;;;;;;;11.70;9.30;;;13.90;99.90;;;;;;5022807;28;20113;-75
2023/08/27 04:21:06;;;;;;;12.10;9.48;;;13.90;99.90;;;;;;5023671;28;20030;-76
2023/08/27 04:23:35;;;;;;;12.35;8.93;;;13.90;99.90;;;;;;5024603;28;20044;-77
2023/08/27 04:26:02;;;;;;;12.88;9.30;;;13.80;99.90;;;;;;5022916;28;20029;-76
2023/08/27 04:28:27;;;;;;;13.90;9.80;;;13.80;99.90;;;;;;5023443;28;20018;-78
2023/08/27 04:30:53;;;;;;;12.70;9.13;;;13.80;99.90;;;;;;5022298;28;20133;-76
2023/08/27 04:33:19;;;;;;;12.95;8.77;;;13.80;99.90;;;;;;5022443;28;20042;-76
2023/08/27 04:35:48;;;;;;;16.20;9.27;;;13.80;99.90;;;;;;5024590;28;20068;-75
2023/08/27 04:38:14;;;;;;;13.55;9.55;;;13.80;99.90;;;;;;5023250;28;20051;-75
2023/08/27 04:40:40;;;;;;;15.88;9.95;;;13.80;99.90;;;;;;5022933;28;20037;-77
2023/08/27 04:43:05;;;;;;;13.73;9.68;;;13.80;99.90;;;;;;5022484;28;20038;-77
2023/08/27 04:45:31;;;;;;;13.27;9.63;;;13.80;99.90;;;;;;5023947;28;20029;-77
2023/08/27 04:47:56;;;;;;;15.23;10.30;;;13.80;99.90;;;;;;5023005;28;20105;-76
2023/08/27 04:50:22;;;;;;;14.45;9.98;;;13.80;99.90;;;;;;5022899;28;20022;-75
2023/08/27 04:52:47;;;;;;;12.27;9.88;;;13.90;99.90;;;;;;5022444;28;20057;-75
2023/08/27 04:55:13;;;;;;;13.77;9.52;;;13.90;99.90;;;;;;5022618;28;20042;-77
2023/08/27 04:57:39;;;;;;;14.13;9.70;;;13.90;99.90;;;;;;5022790;28;20018;-75
2023/08/27 05:00:07;;;;;;;14.77;10.00;;;13.90;99.90;;;;;;5022386;28;20116;-76
2023/08/27 05:02:34;;;;;;;12.48;9.40;;;13.90;99.90;;;;;;5006561;28;20128;-77
2023/08/27 05:04:59;;;;;;;12.02;9.45;;;13.90;99.90;;;;;;5024127;28;20026;-76
2023/08/27 05:07:25;;;;;;;12.48;9.98;;;13.90;99.90;;;;;;5022349;28;20056;-76
2023/08/27 05:09:50;;;;;;;14.57;10.43;;;13.90;99.90;;;;;;5022794;28;20136;-75
2023/08/27 05:12:16;;;;;;;13.90;10.52;;;13.90;99.90;;;;;;5022599;28;20021;-78
2023/08/27 05:14:42;;;;;;;15.52;10.88;;;14.00;99.90;;;;;;5023483;28;20018;-77
2023/08/27 05:17:07;;;;;;;13.90;10.48;;;14.00;99.90;;;;;;5023570;28;20037;-75
2023/08/27 05:19:33;;;;;;;17.02;10.02;;;14.00;99.90;;;;;;5021966;28;20093;-76
2023/08/27 05:22:00;;;;;;;14.20;11.25;;;14.00;99.90;;;;;;5021857;28;20040;-75
2023/08/27 05:24:26;;;;;;;14.07;10.77;;;14.00;99.90;;;;;;5020816;28;20036;-77
2023/08/27 05:26:51;;;;;;;16.02;11.40;;;14.00;99.90;;;;;;5022673;28;20022;-78
2023/08/27 05:29:17;;;;;;;13.23;10.38;;;14.00;99.90;;;;;;5022009;28;20022;-75
2023/08/27 05:31:43;;;;;;;15.20;10.02;;;14.00;99.90;;;;;;5023124;28;20034;-75
2023/08/27 05:34:08;;;;;;;17.25;10.57;;;14.00;99.90;;;;;;5022178;28;20057;-75
2023/08/27 05:36:34;;;;;;;16.70;10.50;;;14.00;99.90;;;;;;5021656;28;20542;-76
2023/08/27 05:39:00;;;;;;;14.40;10.95;;;14.00;99.90;;;;;;5023617;28;20060;-75
2023/08/27 05:41:26;;;;;;;14.48;10.75;;;14.00;99.90;;;;;;5023206;28;20032;-76
2023/08/27 05:43:52;;;;;;;15.68;10.73;;;14.00;99.90;;;;;;5023242;28;20038;-75
2023/08/27 05:46:18;;;;;;;15.07;10.63;;;14.00;99.90;;;;;;5023156;28;20073;-75
2023/08/27 05:48:43;;;;;;;15.02;11.27;;;14.00;99.90;;;;;;5022895;28;20022;-74
2023/08/27 05:51:09;;;;;;;14.57;11.57;;;14.00;99.90;;;;;;5021497;28;20038;-77
2023/08/27 05:53:35;;;;;;;15.65;11.20;;;14.00;99.90;;;;;;5022023;28;20029;-79
2023/08/27 05:56:00;;;;;;;15.68;11.57;;;14.00;99.90;;;;;;5021273;28;20030;-78
2023/08/27 05:58:26;;;;;;;18.77;12.40;;;14.00;99.90;;;;;;5022737;28;20088;-78
2023/08/27 06:00:56;;;;;;;15.80;11.85;;;14.00;99.90;;;;;;5020704;28;20130;-77
2023/08/27 06:03:21;;;;;;;19.13;12.85;;;14.10;99.90;;;;;;5022416;28;20026;-77
2023/08/27 06:05:47;;;;;;;14.95;11.07;;;14.10;99.90;;;;;;5022777;28;20068;-77
2023/08/27 06:08:13;;;;;;;19.65;12.52;;;14.10;99.90;;;;;;5022797;28;20022;-78
2023/08/27 06:10:38;;;;;;;15.00;11.07;;;14.10;99.90;;;;;;5022684;28;20022;-76
2023/08/27 06:13:04;;;;;;;16.88;12.02;;;14.10;99.90;;;;;;5021370;28;20030;-75
2023/08/27 06:15:32;;;;;;;17.23;12.43;;;14.10;99.90;;;;;;5022651;28;20026;-76
2023/08/27 06:18:02;;;;;;;17.25;12.30;;;14.20;99.90;;;;;;5021091;28;20056;-74
2023/08/27 06:20:29;;;;;;;15.10;10.85;;;14.10;99.90;;;;;;5022408;28;20030;-76
2023/08/27 06:22:55;;;;;;;20.73;12.48;;;14.20;99.90;;;;;;5022291;28;20038;-75
2023/08/27 06:25:23;;;;;;;21.17;12.70;;;14.20;99.90;;;;;;5020475;28;20033;-75
2023/08/27 06:27:50;;;;;;;15.93;11.35;;;14.30;99.90;;;;;;5022468;28;20033;-76
2023/08/27 06:30:16;;;;;;;16.38;11.75;;;14.30;99.90;;;;;;5021025;28;20026;-77
2023/08/27 06:32:42;;;;;;;17.70;11.38;;;14.30;99.90;;;;;;5036806;28;20550;-77
2023/08/27 06:35:09;;;;;;;17.92;11.55;;;14.40;99.90;;;;;;5020611;28;20057;-75
2023/08/27 06:37:35;;;;;;;17.83;12.07;;;14.50;99.90;;;;;;5020489;28;20030;-76
2023/08/27 06:40:00;;;;;;;17.23;12.20;;;14.60;99.90;;;;;;5020936;28;20018;-74
2023/08/27 06:42:26;;;;;;;14.13;10.80;;;14.60;99.90;;;;;;5022652;28;20061;-75
2023/08/27 06:44:51;;;;;;;13.00;10.82;;;14.70;99.90;;;;;;5020743;28;20034;-75
2023/08/27 06:47:17;;;;;;;16.73;11.15;;;14.70;99.90;;;;;;5021981;28;20029;-75
2023/08/27 06:49:43;;;;;;;18.58;11.52;;;14.80;99.90;;;;;;5022098;28;20018;-76
2023/08/27 06:52:09;;;;;;;17.20;11.30;;;14.80;99.90;;;;;;5021587;28;20025;-75
2023/08/27 06:54:35;;;;;;;16.23;11.98;;;14.90;99.90;;;;;;5021998;28;20057;-77
2023/08/27 06:57:01;;;;;;;16.27;11.90;;;14.90;99.90;;;;;;5022209;28;20026;-75
2023/08/27 06:59:26;;;;;;;15.65;10.90;;;14.90;99.90;;;;;;5022009;28;20034;-75
2023/08/27 07:01:52;;;;;;;14.88;11.52;;;15.00;99.90;;;;;;5021817;28;20118;-75
2023/08/27 07:04:18;;;;;;;15.40;11.27;;;15.00;99.90;;;;;;5020385;28;20049;-77
2023/08/27 07:06:43;;;;;;;15.73;11.27;;;15.00;99.90;;;;;;5019708;28;20022;-74
2023/08/27 07:09:09;;;;;;;19.38;11.93;;;15.10;99.90;;;;;;5021925;28;20018;-75
2023/08/27 07:11:34;;;;;;;14.98;10.98;;;15.10;99.90;;;;;;5020099;28;20049;-75
2023/08/27 07:14:00;;;;;;;13.48;10.85;;;15.20;99.90;;;;;;5021604;28;20022;-75
2023/08/27 07:16:26;;;;;;;15.23;10.75;;;15.20;99.90;;;;;;5020392;28;20447;-75
2023/08/27 07:18:52;;;;;;;13.57;10.85;;;15.30;99.90;;;;;;5020347;28;20037;-76
2023/08/27 07:21:18;;;;;;;13.48;10.43;;;15.30;99.90;;;;;;5021581;28;20041;-77
2023/08/27 07:23:44;;;;;;;13.48;11.00;;;15.40;99.90;;;;;;5021435;28;20743;-75
2023/08/27 07:26:11;;;;;;;14.45;10.77;;;15.50;99.90;;;;;;5019461;28;20029;-76
2023/08/27 07:28:37;;;;;;;13.32;10.35;;;15.50;99.90;;;;;;5019851;28;20022;-76
2023/08/27 07:31:02;;;;;;;14.85;10.45;;;15.60;99.90;;;;;;5021494;28;20026;-78
2023/08/27 07:33:29;;;;;;;13.25;10.18;;;15.70;99.90;;;;;;5021165;28;20146;-76
2023/08/27 07:35:55;;;;;;;11.88;9.80;;;15.80;99.90;;;;;;5019520;28;20080;-77
2023/08/27 07:38:22;;;;;;;13.10;10.90;;;15.80;99.90;;;;;;5020494;28;20022;-78
2023/08/27 07:40:47;;;;;;;12.48;9.63;;;15.90;99.90;;;;;;5019314;28;20056;-78
2023/08/27 07:43:13;;;;;;;11.50;9.82;;;15.90;99.90;;;;;;5019570;28;20037;-75
2023/08/27 07:45:39;;;;;;;14.82;10.30;;;16.00;99.90;;;;;;5020693;28;20045;-76
2023/08/27 07:48:14;;;;;;;12.23;10.32;;;16.10;99.90;;;;;;5019875;28;20034;-78
2023/08/27 07:50:39;;;;;;;13.77;10.02;;;16.30;99.90;;;;;;5021483;28;20033;-77
2023/08/27 07:53:05;;;;;;;13.15;9.50;;;16.30;99.90;;;;;;5019755;28;20037;-74
2023/08/27 07:55:34;;;;;;;12.77;10.32;;;16.50;99.90;;;;;;5017583;28;20022;-76
2023/08/27 07:58:01;;;;;;;14.05;9.45;;;16.60;99.90;;;;;;5018662;28;20041;-77
2023/08/27 08:00:27;;;;;;;13.50;9.30;;;16.70;99.90;;;;;;5019556;28;20157;-75
2023/08/27 08:02:53;;;;;;;12.52;9.30;;;16.80;99.90;;;;;;5019762;28;20196;-77
2023/08/27 08:05:19;;;;;;;15.05;9.52;;;17.00;99.90;;;;;;5017729;28;20101;-76
2023/08/27 08:07:44;;;;;;;13.35;9.45;;;17.10;99.90;;;;;;5016723;28;20053;-75
2023/08/27 08:10:10;;;;;;;12.65;9.02;;;17.20;99.90;;;;;;5017508;28;20046;-76
2023/08/27 08:12:35;;;;;;;11.48;8.45;;;17.30;99.90;;;;;;5019679;28;20144;-78
2023/08/27 08:15:01;;;;;;;12.57;9.43;;;17.30;99.90;;;;;;5019259;28;20069;-78
2023/08/27 08:17:27;;;;;;;11.80;7.60;;;17.40;99.90;;;;;;5019937;28;20029;-78
2023/08/27 08:19:52;;;;;;;11.93;8.75;;;17.60;99.90;;;;;;5019726;28;20479;-76
2023/08/27 08:22:18;;;;;;;10.80;8.20;;;17.60;99.90;;;;;;5018442;28;20049;-79
2023/08/27 08:24:44;;;;;;;10.55;7.70;;;17.70;99.90;;;;;;5022049;28;20474;-76
2023/08/27 08:27:09;;;;;;;11.68;7.53;;;17.80;99.90;;;;;;5020247;28;20022;-75
2023/08/27 08:29:35;;;;;;;9.82;7.47;;;18.00;99.90;;;;;;5021418;28;20056;-76
2023/08/27 08:32:01;;;;;;;10.70;7.20;;;18.10;99.90;;;;;;5023250;28;20049;-77
2023/08/27 08:34:27;;;;;;;9.27;7.30;;;18.30;99.90;;;;;;5021244;28;20084;-74
2023/08/27 08:36:54;;;;;;;9.48;6.95;;;18.40;99.90;;;;;;5024344;28;20026;-76
2023/08/27 08:39:19;;;;;;;7.55;5.93;;;18.60;99.90;;;;;;5022062;28;20073;-76
2023/08/27 08:41:57;;;;;;;9.45;5.80;;;18.70;99.90;;;;;;5023939;28;20038;-75
2023/08/27 08:44:41;;;;;;;8.07;5.88;;;18.80;99.90;;;;;;5024074;28;20108;-74
2023/08/27 08:47:11;;;;;;;9.40;6.32;;;18.80;99.90;;;;;;5022893;28;20022;-76
2023/08/27 08:49:39;;;;;;;8.48;6.18;;;18.80;99.90;;;;;;5020984;28;20032;-76
2023/08/27 08:52:09;;;;;;;7.18;4.57;;;18.80;99.90;;;;;;5023587;28;20057;-76
2023/08/27 08:54:37;;;;;;;9.43;5.95;;;18.80;99.90;;;;;;5014209;28;20049;-73
2023/08/27 08:57:04;;;;;;;9.15;5.93;;;18.80;99.90;;;;;;5017417;28;20038;-75
2023/08/27 08:59:32;;;;;;;9.38;6.07;;;18.90;99.90;;;;;;5016219;28;20029;-75
2023/08/27 09:01:59;;;;;;;10.43;6.85;;;19.00;99.90;;;;;;5022223;28;20049;-76
2023/08/27 09:04:26;;;;;;;9.98;6.43;;;19.00;99.90;;;;;;5020335;28;20046;-76
2023/08/27 09:06:53;;;;;;;10.20;6.32;;;19.00;99.90;;;;;;5021976;28;20806;-73
2023/08/27 09:09:21;;;;;;;12.13;5.93;;;19.00;99.90;;;;;;5021175;28;20026;-77
2023/08/27 09:11:49;;;;;;;9.00;5.72;;;19.10;99.90;;;;;;5038765;28;20029;-75
2023/08/27 09:14:15;;;;;;;10.60;6.00;;;19.10;99.90;;;;;;5022295;28;20029;-78
2023/08/27 09:16:41;;;;;;;8.85;5.10;;;19.30;99.90;;;;;;5022480;28;20053;-74
2023/08/27 09:19:07;;;;;;;10.93;5.30;;;19.40;99.90;;;;;;5020541;28;20034;-74
2023/08/27 09:21:36;;;;;;;9.80;5.10;;;19.50;99.90;;;;;;5021386;28;20018;-77
2023/08/27 09:24:02;;;;;;;11.15;5.95;;;19.60;99.90;;;;;;5022767;28;20045;-76
2023/08/27 09:26:27;;;;;;;7.78;4.50;;;19.70;99.90;;;;;;5023628;28;20021;-77
2023/08/27 09:28:55;;;;;;;8.40;4.95;;;19.70;99.90;;;;;;5023032;28;20032;-75
2023/08/27 09:31:41;;;;;;;6.85;4.60;;;19.70;99.90;;;;;;5022307;28;20513;-75
2023/08/27 09:34:06;;;;;;;9.43;5.45;;;19.60;99.90;;;;;;5020375;28;20052;-73
2023/08/27 09:36:35;;;;;;;9.35;5.78;;;19.50;99.90;;;;;;5020759;28;20049;-73
2023/08/27 09:39:11;;;;;;;10.73;5.82;;;19.40;99.90;;;;;;5021185;28;20036;-75
2023/08/27 09:41:42;;;;;;;8.45;5.80;;;19.30;99.90;;;;;;5022269;28;20017;-75
2023/08/27 09:44:08;;;;;;;9.65;5.10;;;19.20;99.90;;;;;;5037596;28;20042;-75
2023/08/27 09:46:35;;;;;;;32.95;7.32;;;19.10;99.90;;;;;;5022281;28;20025;-75
2023/08/27 09:49:07;;;;;;;65.93;14.68;;;18.90;99.90;;;;;;5020389;28;20136;-71
2023/08/27 09:51:35;;;;;;;27.00;15.85;;;18.50;99.90;;;;;;5019127;28;20109;-74
2023/08/27 09:54:01;;;;;;;31.02;18.17;;;17.80;99.90;;;;;;5019623;28;20076;-73
2023/08/27 09:56:27;;;;;;;30.95;19.80;;;17.30;99.90;;;;;;5021519;28;20033;-74
2023/08/27 09:58:54;;;;;;;28.58;19.30;;;17.00;99.90;;;;;;5017091;28;20500;-74
2023/08/27 10:01:21;;;;;;;31.73;20.95;;;16.80;99.90;;;;;;5021359;28;20048;-77
2023/08/27 10:03:47;;;;;;;36.25;23.95;;;16.60;99.90;;;;;;5022381;28;20124;-77
2023/08/27 10:06:14;;;;;;;35.67;24.42;;;16.50;99.90;;;;;;5021064;28;20026;-75
2023/08/27 10:08:50;;;;;;;42.20;24.65;;;16.40;99.90;;;;;;5016931;28;20431;-74
2023/08/27 10:11:16;;;;;;;31.75;21.35;;;16.40;99.90;;;;;;5019139;28;20176;-72
2023/08/27 10:13:44;;;;;;;34.58;21.23;;;16.30;99.90;;;;;;5019666;28;20025;-72
2023/08/27 10:16:12;;;;;;;40.28;20.42;;;16.20;99.90;;;;;;5019099;28;20126;-73
2023/08/27 10:18:39;;;;;;;33.47;20.88;;;16.20;99.90;;;;;;5021620;28;20022;-71
2023/08/27 10:21:07;;;;;;;32.45;20.73;;;16.00;99.90;;;;;;5020641;28;20057;-75
2023/08/27 10:23:34;;;;;;;32.92;18.67;;;15.90;99.90;;;;;;5017587;28;20049;-75
2023/08/27 10:26:02;;;;;;;23.00;14.30;;;15.80;99.90;;;;;;5016566;28;20032;-74
2023/08/27 10:28:28;;;;;;;25.33;16.67;;;15.70;99.90;;;;;;5017914;28;20048;-77
2023/08/27 10:30:55;;;;;;;26.80;14.82;;;15.70;99.90;;;;;;5021494;28;20033;-76
2023/08/27 10:33:20;;;;;;;13.30;8.30;;;15.70;99.90;;;;;;5019472;28;20037;-73
2023/08/27 10:35:48;;;;;;;9.55;7.00;;;15.60;99.90;;;;;;5021335;28;20421;-76
2023/08/27 10:38:16;;;;;;;14.40;8.00;;;15.60;99.90;;;;;;5021415;28;20026;-74
2023/08/27 10:40:44;;;;;;;12.25;8.50;;;15.50;99.90;;;;;;5019332;28;20097;-72
2023/08/27 10:43:19;;;;;;;9.88;7.05;;;15.50;99.90;;;;;;5020971;28;20152;-77
2023/08/27 10:45:47;;;;;;;16.80;8.40;;;15.50;99.90;;;;;;5019247;28;20564;-78
2023/08/27 10:48:24;;;;;;;13.52;7.43;;;15.50;99.90;;;;;;5019772;28;20026;-75
2023/08/27 10:50:51;;;;;;;11.82;8.10;;;15.50;99.90;;;;;;5020210;28;20057;-76
2023/08/27 10:53:18;;;;;;;12.88;7.45;;;15.40;99.90;;;;;;5018610;28;20033;-77
2023/08/27 10:55:49;;;;;;;14.85;7.20;;;15.50;99.90;;;;;;5017484;28;20033;-74
2023/08/27 10:58:22;;;;;;;13.68;6.75;;;15.50;99.90;;;;;;5017856;28;20026;-74
2023/08/27 11:01:02;;;;;;;10.68;6.30;;;15.40;99.90;;;;;;5020526;28;20650;-75
2023/08/27 11:03:55;;;;;;;7.95;5.28;;;15.40;99.90;;;;;;5018621;28;21318;-76
2023/08/27 11:06:34;;;;;;;8.17;5.33;;;15.40;99.90;;;;;;5026286;28;20056;-80
2023/08/27 11:09:01;;;;;;;6.70;4.05;;;15.40;99.90;;;;;;5026112;28;20037;-78
2023/08/27 11:11:29;;;;;;;5.97;4.47;;;15.40;99.90;;;;;;5018983;28;20085;-77
2023/08/27 11:14:05;;;;;;;6.40;4.10;;;15.40;99.90;;;;;;5018887;28;20030;-75
2023/08/27 11:16:31;;;;;;;6.13;3.70;;;15.50;99.90;;;;;;5020349;28;20029;-75
2023/08/27 11:18:57;;;;;;;4.70;3.30;;;15.60;99.90;;;;;;5018979;28;20461;-79
2023/08/27 11:21:28;;;;;;;8.07;3.90;;;15.60;99.90;;;;;;5020631;28;20369;-77
2023/08/27 11:24:14;;;;;;;4.03;3.45;;;15.70;99.90;;;;;;5027372;28;20442;-79
2023/08/27 11:26:41;;;;;;;3.80;2.92;;;15.80;99.90;;;;;;5020173;28;20052;-73
2023/08/27 11:29:08;;;;;;;6.88;3.00;;;15.80;99.90;;;;;;5018575;28;20114;-78
2023/08/27 11:31:34;;;;;;;5.80;3.17;;;15.80;99.90;;;;;;5018349;28;20026;-79
2023/08/27 11:34:01;;;;;;;5.28;3.63;;;15.90;99.90;;;;;;5019062;28;20042;-76
2023/08/27 11:36:26;;;;;;;6.25;3.90;;;16.00;99.90;;;;;;5019157;28;20038;-74
2023/08/27 11:39:01;;;;;;;6.20;4.18;;;16.00;99.90;;;;;;5015410;28;20052;-76
2023/08/27 11:41:33;;;;;;;;;;;16.10;99.90;;;;;;5020212;28;21520;-77
2023/08/27 11:43:59;;;;;;;7.78;3.88;;;16.10;99.90;;;;;;5018344;28;19937;-78
2023/08/27 11:46:25;;;;;;;10.90;5.28;;;16.10;99.90;;;;;;5019787;28;20033;-78
2023/08/27 11:48:51;;;;;;;12.60;6.45;;;16.20;99.90;;;;;;5016392;28;20079;-72
2023/08/27 11:51:17;;;;;;;14.02;8.35;;;16.30;99.90;;;;;;5018335;28;20045;-72
2023/08/27 11:53:44;;;;;;;9.82;7.55;;;16.40;99.90;;;;;;5018545;28;20102;-74
2023/08/27 11:56:15;;;;;;;6.43;4.95;;;16.50;99.90;;;;;;5018983;28;20090;-74
2023/08/27 11:58:41;;;;;;;5.70;4.55;;;16.60;99.90;;;;;;5021548;28;20022;-77
2023/08/27 12:01:10;;;;;;;6.65;4.75;;;16.80;99.90;;;;;;5021478;28;20022;-76
2023/08/27 12:03:40;;;;;;;5.43;4.38;;;17.00;99.90;;;;;;5030897;28;20052;-72
2023/08/27 12:06:14;;;;;;;5.15;3.72;;;17.00;99.90;;;;;;5021560;28;20026;-76
2023/08/27 12:08:40;;;;;;;4.47;3.13;;;17.10;99.90;;;;;;5023338;28;20026;-73
2023/08/27 12:11:05;;;;;;;5.95;3.83;;;17.40;99.90;;;;;;5022228;28;20033;-70
2023/08/27 12:13:33;;;;;;;6.40;3.92;;;17.60;99.90;;;;;;5022912;28;20053;-72
2023/08/27 12:16:00;;;;;;;7.85;3.88;;;17.70;99.90;;;;;;5021491;28;20041;-75
2023/08/27 12:18:34;;;;;;;6.65;3.58;;;18.00;99.90;;;;;;5020527;28;20029;-74
2023/08/27 12:21:06;;;;;;;5.75;3.63;;;18.20;99.90;;;;;;5019765;28;20057;-73
2023/08/27 12:23:33;;;;;;;4.43;3.20;;;18.30;99.90;;;;;;5021506;28;20041;-73
2023/08/27 12:26:02;;;;;;;3.38;2.50;;;18.50;99.90;;;;;;5020529;28;20109;-72
2023/08/27 12:28:27;;;;;;;4.32;2.45;;;18.80;99.90;;;;;;5020159;28;20034;-78
2023/08/27 12:30:54;;;;;;;4.53;2.00;;;19.00;99.90;;;;;;5017893;28;20099;-70
2023/08/27 12:33:20;;;;;;;3.05;1.92;;;19.10;99.90;;;;;;5019001;28;20029;-73
2023/08/27 12:35:47;;;;;;;3.70;2.10;;;19.30;99.90;;;;;;5017686;28;20052;-69